Time;durP1;ratioP1;P1;durP2;ratioP2;P2;SDS_P1;SDS_P2;PMS_P1;PMS_P2;Temp;Humidity;BMP_temperature;BMP_pressure;BME280_temperature;BME280_humidity;BME280_pressure;Samples;Min_cycle;Max_cycle;Signal;HPM_P1;HPM_P2
2022/04/04 00:00:13;;;;;;;5.85;3.92;;;2.50;55.90;;;;;;5092154;28;20698;-62
2022/04/04 00:02:41;;;;;;;6.57;3.92;;;2.50;55.70;;;;;;5092781;28;20554;-63
2022/04/04 00:05:09;;;;;;;5.03;3.50;;;2.50;55.70;;;;;;5103388;28;20185;-63
2022/04/04 00:07:36;;;;;;;5.55;3.75;;;2.50;55.70;;;;;;5092194;28;20185;-63
2022/04/04 00:10:04;;;;;;;5.75;3.72;;;2.50;56.00;;;;;;5092195;28;20227;-62
2022/04/04 00:12:31;;;;;;;5.57;4.20;;;2.50;56.40;;;;;;5091852;28;20228;-63
2022/04/04 00:14:59;;;;;;;6.13;3.70;;;2.50;56.60;;;;;;5091748;28;20648;-62
2022/04/04 00:17:26;;;;;;;5.13;3.25;;;2.50;56.00;;;;;;5109565;28;20220;-62
2022/04/04 00:19:54;;;;;;;6.82;4.30;;;2.40;55.50;;;;;;5112517;28;20196;-63
2022/04/04 00:22:21;;;;;;;5.15;3.92;;;2.40;55.60;;;;;;5096184;28;20185;-63
2022/04/04 00:24:48;;;;;;;5.03;3.38;;;2.40;55.80;;;;;;5112349;28;20279;-63
2022/04/04 00:27:16;;;;;;;6.85;3.88;;;2.30;55.70;;;;;;5096349;28;20651;-63
2022/04/04 00:29:43;;;;;;;6.15;3.80;;;2.30;55.50;;;;;;5092009;28;20193;-62
2022/04/04 00:32:10;;;;;;;5.65;3.95;;;2.20;55.50;;;;;;5105686;28;20700;-62
2022/04/04 00:34:38;;;;;;;8.23;3.50;;;2.20;55.60;;;;;;5112272;28;20310;-63
2022/04/04 00:37:07;;;;;;;6.20;4.00;;;2.10;57.20;;;;;;5098122;28;20200;-63
2022/04/04 00:39:34;;;;;;;6.20;3.92;;;2.00;57.80;;;;;;5091840;28;20553;-62
2022/04/04 00:42:01;;;;;;;4.80;3.63;;;2.00;57.80;;;;;;5103555;28;20671;-62
2022/04/04 00:44:28;;;;;;;7.50;4.00;;;1.90;58.30;;;;;;5116543;28;20227;-63
2022/04/04 00:46:57;;;;;;;7.50;4.60;;;1.90;58.50;;;;;;5104071;28;20234;-64
2022/04/04 00:49:24;;;;;;;7.93;5.05;;;1.80;59.40;;;;;;5096149;28;20489;-63
2022/04/04 00:51:51;;;;;;;7.78;4.53;;;1.70;59.60;;;;;;5106045;28;20185;-63
2022/04/04 00:54:21;;;;;;;5.63;4.63;;;1.70;59.80;;;;;;5116137;28;20250;-63
2022/04/04 00:56:49;;;;;;;5.10;3.92;;;1.60;59.70;;;;;;5105450;28;20231;-63
2022/04/04 00:59:18;;;;;;;5.68;4.30;;;1.60;60.00;;;;;;5095978;28;20386;-62
2022/04/04 01:01:45;;;;;;;6.03;4.30;;;1.60;60.00;;;;;;5104318;28;20191;-62
2022/04/04 01:04:16;;;;;;;4.97;3.30;;;1.60;60.10;;;;;;5115840;28;20188;-62
2022/04/04 01:06:44;;;;;;;7.53;4.45;;;1.50;60.20;;;;;;5106160;28;20200;-63
2022/04/04 01:09:14;;;;;;;5.75;4.60;;;1.40;60.80;;;;;;5095582;28;20224;-62
2022/04/04 01:12:08;;;;;;;6.50;4.78;;;1.40;62.50;;;;;;5103179;28;20216;-63
2022/04/04 01:14:36;;;;;;;8.70;5.20;;;1.30;62.20;;;;;;5115582;28;20224;-63
2022/04/04 01:17:04;;;;;;;8.02;4.82;;;1.20;62.30;;;;;;5106892;28;20212;-63
2022/04/04 01:19:31;;;;;;;7.70;5.00;;;1.20;62.60;;;;;;5115560;28;20256;-63
2022/04/04 01:21:58;;;;;;;9.77;3.97;;;1.10;63.30;;;;;;5104507;28;20228;-64
2022/04/04 01:24:27;;;;;;;6.80;4.95;;;1.00;63.50;;;;;;5094878;28;20185;-65
2022/04/04 01:26:55;;;;;;;7.25;5.18;;;1.00;64.10;;;;;;5102310;28;20294;-63
2022/04/04 01:29:23;;;;;;;6.82;4.30;;;1.00;64.60;;;;;;5094984;28;20189;-63
2022/04/04 01:31:51;;;;;;;10.85;4.90;;;0.90;64.60;;;;;;5102589;28;20226;-63
2022/04/04 01:34:19;;;;;;;7.50;5.35;;;0.90;64.60;;;;;;5115290;28;20274;-63
2022/04/04 01:36:46;;;;;;;5.00;3.75;;;0.80;64.80;;;;;;5113280;28;20176;-62
2022/04/04 01:39:13;;;;;;;5.70;4.07;;;0.80;65.40;;;;;;5115420;28;20192;-63
2022/04/04 01:41:42;;;;;;;6.75;5.18;;;0.80;65.20;;;;;;5113296;28;20267;-63
2022/04/04 01:44:09;;;;;;;7.82;4.45;;;0.70;65.10;;;;;;5115278;28;20275;-63
2022/04/04 01:46:37;;;;;;;5.22;3.83;;;0.60;65.20;;;;;;5109577;28;20181;-63
2022/04/04 01:49:06;;;;;;;6.90;4.45;;;0.60;65.30;;;;;;5094539;28;20636;-63
2022/04/04 01:51:37;;;;;;;6.07;3.88;;;0.60;65.30;;;;;;5098761;28;20177;-63
2022/04/04 01:54:05;;;;;;;6.20;3.78;;;0.70;65.40;;;;;;5114027;28;20213;-63
2022/04/04 01:56:32;;;;;;;8.35;4.32;;;0.70;65.20;;;;;;5100706;28;20185;-63
2022/04/04 01:59:01;;;;;;;6.15;4.75;;;0.60;64.90;;;;;;5094416;28;20193;-63
2022/04/04 02:01:28;;;;;;;5.93;4.20;;;0.60;64.90;;;;;;5102697;28;20255;-63
2022/04/04 02:03:57;;;;;;;5.88;4.18;;;0.60;64.90;;;;;;5094477;28;20197;-64
2022/04/04 02:06:25;;;;;;;9.10;4.45;;;0.60;64.90;;;;;;5105202;28;20609;-63
2022/04/04 02:08:52;;;;;;;7.97;4.32;;;0.60;64.70;;;;;;5114906;28;20563;-63
2022/04/04 02:11:22;;;;;;;7.53;4.72;;;0.50;64.50;;;;;;5105887;28;20181;-63
2022/04/04 02:13:50;;;;;;;7.45;5.07;;;0.40;64.40;;;;;;5114570;28;20310;-63
2022/04/04 02:16:18;;;;;;;7.03;4.57;;;0.30;64.60;;;;;;5105098;28;20209;-62
2022/04/04 02:18:45;;;;;;;6.38;4.65;;;0.30;64.70;;;;;;5094314;28;20635;-62
2022/04/04 02:21:13;;;;;;;8.73;4.97;;;0.30;65.20;;;;;;5101037;28;20184;-63
2022/04/04 02:23:40;;;;;;;6.40;4.00;;;0.30;65.30;;;;;;5114484;28;20268;-63
2022/04/04 02:26:07;;;;;;;9.18;4.60;;;0.30;65.20;;;;;;5107624;28;20227;-62
2022/04/04 02:28:34;;;;;;;10.02;4.50;;;0.30;65.30;;;;;;5093624;28;20554;-63
2022/04/04 02:31:02;;;;;;;8.05;4.75;;;0.20;65.20;;;;;;5099430;28;20180;-62
2022/04/04 02:33:31;;;;;;;6.28;4.40;;;0.20;65.30;;;;;;5114144;27;20581;-63
2022/04/04 02:35:58;;;;;;;6.10;4.40;;;0.20;65.20;;;;;;5108888;28;20647;-63
2022/04/04 02:38:28;;;;;;;7.82;5.00;;;0.10;65.20;;;;;;5093892;28;20538;-63
2022/04/04 02:40:57;;;;;;;7.50;4.47;;;0.10;65.20;;;;;;5097816;28;20596;-63
2022/04/04 02:43:24;;;;;;;7.05;4.28;;;0.10;65.40;;;;;;5114134;28;20193;-63
2022/04/04 02:45:52;;;;;;;12.07;4.60;;;0.00;66.30;;;;;;5109992;28;20181;-62
2022/04/04 02:48:19;;;;;;;6.60;4.35;;;0.00;66.70;;;;;;5093833;28;20189;-62
2022/04/04 02:50:48;;;;;;;6.32;3.78;;;0.00;66.90;;;;;;5107744;28;20647;-62
2022/04/04 02:53:16;;;;;;;7.07;4.38;;;-0.10;67.10;;;;;;5113661;28;20238;-63
2022/04/04 02:58:28;;;;;;;7.63;4.50;;;-0.20;67.50;;;;;;5093576;28;20338;-62
2022/04/04 03:00:55;;;;;;;10.05;5.88;;;-0.20;68.10;;;;;;5108954;28;20219;-63
2022/04/04 03:03:23;;;;;;;10.90;5.57;;;-0.30;68.30;;;;;;5113698;28;20608;-63
2022/04/04 03:05:52;;;;;;;10.90;5.50;;;-0.30;68.20;;;;;;5097286;28;20211;-63
2022/04/04 03:08:19;;;;;;;8.18;4.57;;;-0.30;68.60;;;;;;5092968;28;20193;-62
2022/04/04 03:10:47;;;;;;;7.40;4.13;;;-0.30;68.70;;;;;;5107100;28;20188;-63
2022/04/04 03:13:14;;;;;;;10.20;4.65;;;-0.40;68.70;;;;;;5113404;28;20574;-63
2022/04/04 03:15:41;;;;;;;6.15;4.75;;;-0.40;69.10;;;;;;5099623;28;20219;-63
2022/04/04 03:18:09;;;;;;;7.43;4.75;;;-0.40;69.00;;;;;;5092930;28;20260;-62
2022/04/04 03:20:37;;;;;;;7.05;5.45;;;-0.40;69.40;;;;;;5105358;28;20651;-63
2022/04/04 03:23:06;;;;;;;7.18;4.80;;;-0.40;69.60;;;;;;5113106;28;20650;-63
2022/04/04 03:25:34;;;;;;;8.88;5.85;;;-0.40;69.60;;;;;;5111498;28;20184;-63
2022/04/04 03:28:01;;;;;;;9.55;5.82;;;-0.40;69.70;;;;;;5113104;28;20193;-62
2022/04/04 03:30:31;;;;;;;6.95;5.45;;;-0.40;69.50;;;;;;5101293;28;20651;-63
2022/04/04 03:33:03;;;;;;;8.73;6.32;;;-0.40;69.20;;;;;;5092683;28;20558;-62
2022/04/04 03:35:33;;;;;;;8.27;4.38;;;-0.40;69.50;;;;;;5103305;28;20280;-63
2022/04/04 03:38:04;;;;;;;8.77;5.60;;;-0.40;69.80;;;;;;5112667;28;20643;-62
2022/04/04 03:40:33;;;;;;;5.43;4.05;;;-0.50;69.30;;;;;;5101062;28;20189;-62
2022/04/04 03:43:01;;;;;;;6.32;4.13;;;-0.60;69.60;;;;;;5092638;28;20197;-62
2022/04/04 03:45:29;;;;;;;6.93;4.95;;;-0.70;70.00;;;;;;5102828;28;20185;-62
2022/04/04 03:47:57;;;;;;;9.20;4.72;;;-0.70;70.00;;;;;;5112707;28;20261;-63
2022/04/04 03:50:25;;;;;;;7.47;5.70;;;-0.80;69.40;;;;;;5102126;28;20684;-63
2022/04/04 03:52:54;;;;;;;10.38;5.50;;;-0.70;69.60;;;;;;5092414;28;20191;-63
2022/04/04 03:55:22;;;;;;;6.53;5.80;;;-0.80;69.40;;;;;;5100908;28;20212;-63
2022/04/04 03:57:52;;;;;;;7.57;5.13;;;-0.90;69.70;;;;;;5112809;28;20224;-62
2022/04/04 04:00:21;;;;;;;10.15;4.90;;;-0.90;69.80;;;;;;5103050;28;20185;-62
2022/04/04 04:02:49;;;;;;;7.13;4.72;;;-1.00;69.90;;;;;;5092511;28;20189;-62
2022/04/04 04:05:16;;;;;;;6.38;4.60;;;-1.00;70.10;;;;;;5096162;28;20214;-62
2022/04/04 04:07:44;;;;;;;11.82;5.85;;;-1.00;70.30;;;;;;5100492;28;20185;-62
2022/04/04 04:10:13;;;;;;;5.95;4.50;;;-1.00;69.80;;;;;;5092550;28;20200;-62
2022/04/04 04:12:41;;;;;;;13.45;5.20;;;-1.00;70.00;;;;;;5098089;28;20233;-62
2022/04/04 04:15:12;;;;;;;7.18;4.47;;;-1.10;70.50;;;;;;5112521;28;20254;-62
2022/04/04 04:17:49;;;;;;;9.27;5.05;;;-1.10;70.80;;;;;;5106745;28;20240;-62
2022/04/04 04:20:31;;;;;;;7.60;4.82;;;-1.00;70.90;;;;;;5104470;28;20180;-62
2022/04/04 04:23:00;;;;;;;8.07;4.72;;;-1.00;70.60;;;;;;5104864;28;20188;-62
2022/04/04 04:25:29;;;;;;;6.63;5.18;;;-1.00;70.40;;;;;;5092312;28;20197;-62
2022/04/04 04:27:59;;;;;;;8.05;5.47;;;-1.00;69.60;;;;;;5098238;28;20210;-62
2022/04/04 04:30:28;;;;;;;7.65;4.63;;;-1.00;69.10;;;;;;5098209;28;20678;-62
2022/04/04 04:32:56;;;;;;;7.63;5.50;;;-1.00;68.80;;;;;;5097755;28;20210;-62
2022/04/04 04:35:24;;;;;;;5.80;4.50;;;-1.00;68.10;;;;;;5112040;28;20300;-62
2022/04/04 04:37:52;;;;;;;8.35;4.60;;;-1.00;68.20;;;;;;5107409;28;20694;-62
2022/04/04 04:40:19;;;;;;;8.75;4.30;;;-1.00;68.20;;;;;;5103989;28;20187;-62
2022/04/04 04:42:48;;;;;;;7.35;4.95;;;-1.00;68.30;;;;;;5108502;28;20230;-62
2022/04/04 04:45:15;;;;;;;10.75;6.18;;;-1.00;67.90;;;;;;5092136;28;20201;-62
2022/04/04 04:47:44;;;;;;;9.27;4.93;;;-1.10;67.10;;;;;;5093846;28;20189;-61
2022/04/04 04:50:13;;;;;;;8.05;4.85;;;-1.20;66.40;;;;;;5101326;28;20189;-62
2022/04/04 04:52:40;;;;;;;8.45;5.90;;;-1.30;67.30;;;;;;5093046;28;20196;-62
2022/04/04 04:55:10;;;;;;;8.65;5.50;;;-1.40;67.50;;;;;;5097550;28;20571;-62
2022/04/04 04:57:37;;;;;;;9.27;6.35;;;-1.40;67.70;;;;;;5092077;28;20190;-62
2022/04/04 05:00:07;;;;;;;9.70;6.38;;;-1.30;68.10;;;;;;5112463;28;20192;-62
2022/04/04 05:02:34;;;;;;;12.88;7.47;;;-1.40;68.10;;;;;;5107623;28;20849;-62
2022/04/04 05:05:04;;;;;;;10.10;5.90;;;-1.30;68.70;;;;;;5071902;28;20228;-64
2022/04/04 05:07:32;;;;;;;10.25;5.57;;;-1.30;69.00;;;;;;5077702;28;20314;-63
2022/04/04 05:09:58;;;;;;;10.63;6.25;;;-1.20;69.40;;;;;;5107710;28;20181;-63
2022/04/04 05:12:26;;;;;;;8.57;5.78;;;-1.20;69.60;;;;;;5089939;28;20230;-66
2022/04/04 05:14:52;;;;;;;10.75;6.60;;;-1.30;69.40;;;;;;5087862;28;20695;-63
2022/04/04 05:17:22;;;;;;;8.95;6.03;;;-1.30;69.50;;;;;;5090610;28;20256;-62
2022/04/04 05:19:49;;;;;;;8.90;6.68;;;-1.30;69.10;;;;;;5091490;28;20193;-62
2022/04/04 05:22:18;;;;;;;15.48;7.75;;;-1.30;69.10;;;;;;5091494;28;20576;-62
2022/04/04 05:24:45;;;;;;;11.55;7.18;;;-1.30;70.10;;;;;;5102144;28;20192;-63
2022/04/04 05:27:13;;;;;;;10.75;7.03;;;-1.30;70.40;;;;;;5092057;28;20185;-62
2022/04/04 05:29:40;;;;;;;13.20;8.73;;;-1.30;71.00;;;;;;5091745;28;20569;-63
2022/04/04 05:32:07;;;;;;;10.68;7.38;;;-1.30;71.60;;;;;;5095295;28;20194;-65
2022/04/04 05:34:34;;;;;;;9.57;6.28;;;-1.20;70.90;;;;;;5091238;28;20278;-62
2022/04/04 05:37:04;;;;;;;9.38;6.07;;;-1.20;70.90;;;;;;5093980;28;20181;-63
2022/04/04 05:39:32;;;;;;;8.30;6.60;;;-1.10;71.50;;;;;;5094661;28;20193;-63
2022/04/04 05:41:59;;;;;;;10.95;7.22;;;-1.00;72.00;;;;;;5096064;28;20237;-62
2022/04/04 05:44:27;;;;;;;15.23;7.28;;;-0.90;72.00;;;;;;5096411;28;20250;-63
2022/04/04 05:46:54;;;;;;;8.15;6.10;;;-0.80;72.20;;;;;;5093902;28;20200;-63
2022/04/04 05:49:21;;;;;;;8.38;6.20;;;-0.60;73.30;;;;;;5093357;28;20268;-62
2022/04/04 05:51:48;;;;;;;9.18;6.50;;;-0.40;72.50;;;;;;5093501;28;20296;-62
2022/04/04 05:54:15;;;;;;;13.82;9.18;;;-0.20;71.80;;;;;;5093566;28;20272;-63
2022/04/04 05:56:45;;;;;;;8.05;6.38;;;0.10;71.40;;;;;;5092665;28;20744;-62
2022/04/04 05:59:13;;;;;;;10.68;6.75;;;0.30;70.20;;;;;;5093223;28;20181;-63
2022/04/04 06:01:40;;;;;;;12.52;6.88;;;0.40;69.90;;;;;;5093002;28;20189;-63
2022/04/04 06:04:07;;;;;;;8.68;5.38;;;0.60;68.80;;;;;;5093126;28;20628;-64
2022/04/04 06:06:34;;;;;;;8.80;5.47;;;0.70;67.60;;;;;;5092737;28;20189;-63
2022/04/04 06:09:01;;;;;;;11.30;6.80;;;0.80;66.40;;;;;;5092594;28;20199;-62
2022/04/04 06:11:29;;;;;;;6.00;4.80;;;0.90;65.10;;;;;;5094141;28;20193;-62
2022/04/04 06:13:58;;;;;;;6.50;4.75;;;1.00;64.00;;;;;;5092535;28;20220;-64
2022/04/04 06:16:26;;;;;;;10.68;4.78;;;1.10;64.40;;;;;;5093208;28;20223;-64
2022/04/04 06:18:53;;;;;;;8.93;5.47;;;1.20;64.20;;;;;;5092515;28;20676;-65
2022/04/04 06:21:20;;;;;;;7.88;6.13;;;1.30;63.40;;;;;;5092234;28;20188;-63
2022/04/04 06:23:48;;;;;;;6.05;4.20;;;1.40;62.20;;;;;;5092356;28;20635;-63
2022/04/04 06:26:15;;;;;;;6.78;4.13;;;1.40;61.60;;;;;;5093537;28;20193;-62
2022/04/04 06:28:42;;;;;;;8.00;6.30;;;1.50;62.80;;;;;;5093001;28;20282;-62
2022/04/04 06:31:11;;;;;;;7.70;6.00;;;1.60;62.50;;;;;;5093039;28;20185;-62
2022/04/04 06:33:39;;;;;;;7.68;4.97;;;1.80;61.90;;;;;;5093940;28;20228;-63
2022/04/04 06:36:06;;;;;;;9.90;5.20;;;1.90;59.80;;;;;;5092512;28;20209;-65
2022/04/04 06:38:33;;;;;;;8.98;4.97;;;2.00;60.10;;;;;;5104254;28;20651;-63
2022/04/04 06:41:00;;;;;;;10.13;5.80;;;2.10;59.90;;;;;;5114930;28;20611;-63
2022/04/04 06:43:27;;;;;;;10.07;5.05;;;2.30;60.40;;;;;;5114510;28;20579;-64
2022/04/04 06:45:54;;;;;;;6.72;4.40;;;2.40;57.80;;;;;;5100985;28;20220;-64
2022/04/04 06:48:23;;;;;;;6.50;4.70;;;2.70;59.90;;;;;;5102750;28;20276;-64
2022/04/04 06:50:51;;;;;;;7.78;4.80;;;3.00;59.10;;;;;;5103444;28;20189;-63
2022/04/04 06:53:21;;;;;;;9.25;6.47;;;3.40;58.70;;;;;;5114643;28;20200;-63
2022/04/04 06:55:49;;;;;;;11.55;4.60;;;3.80;56.40;;;;;;5114577;28;20564;-64
2022/04/04 06:58:16;;;;;;;8.68;5.45;;;4.10;55.70;;;;;;5114604;27;20192;-63
2022/04/04 07:00:44;;;;;;;9.00;6.70;;;4.30;54.50;;;;;;5114623;28;20223;-64
2022/04/04 07:03:11;;;;;;;5.75;3.90;;;4.60;54.40;;;;;;5098104;28;20598;-63
2022/04/04 07:05:40;;;;;;;8.43;5.88;;;4.80;52.60;;;;;;5095205;28;20280;-63
2022/04/04 07:08:08;;;;;;;6.63;4.97;;;4.90;51.30;;;;;;5095341;28;20243;-63
2022/04/04 07:10:35;;;;;;;6.85;5.70;;;4.90;50.10;;;;;;5094725;28;20231;-63
2022/04/04 07:13:01;;;;;;;8.93;5.50;;;5.10;50.80;;;;;;5093778;28;20240;-63
2022/04/04 07:15:29;;;;;;;8.23;6.00;;;5.10;50.90;;;;;;5098537;28;20248;-63
2022/04/04 07:17:56;;;;;;;8.00;5.65;;;5.10;50.90;;;;;;5097291;28;20308;-63
2022/04/04 07:20:23;;;;;;;9.02;5.65;;;5.20;49.40;;;;;;5099369;28;20250;-64
2022/04/04 07:22:51;;;;;;;7.90;5.78;;;5.20;49.70;;;;;;5102912;28;20279;-63
2022/04/04 07:25:18;;;;;;;6.90;5.40;;;5.20;48.50;;;;;;5100312;28;20224;-63
2022/04/04 07:27:46;;;;;;;9.60;5.40;;;5.30;49.50;;;;;;5098524;28;20244;-63
2022/04/04 07:30:16;;;;;;;9.10;5.88;;;5.30;48.50;;;;;;5100832;28;20283;-63
2022/04/04 07:32:43;;;;;;;10.65;5.88;;;5.10;47.70;;;;;;5099262;28;20595;-63
2022/04/04 07:35:12;;;;;;;8.15;6.15;;;5.00;49.30;;;;;;5101186;28;20267;-63
2022/04/04 07:37:39;;;;;;;11.75;6.10;;;5.00;49.10;;;;;;5097958;28;20196;-63
2022/04/04 07:40:10;;;;;;;9.95;6.10;;;4.90;48.90;;;;;;5100689;28;20279;-63
2022/04/04 07:42:37;;;;;;;7.07;5.55;;;4.90;49.60;;;;;;5102615;28;20220;-63
2022/04/04 07:45:05;;;;;;;7.32;5.47;;;5.00;49.70;;;;;;5101823;28;20642;-63
2022/04/04 07:47:32;;;;;;;9.00;6.57;;;5.00;48.80;;;;;;5098853;28;20296;-63
2022/04/04 07:49:59;;;;;;;8.80;6.82;;;5.00;48.90;;;;;;5101061;28;20304;-63
2022/04/04 07:52:27;;;;;;;7.40;5.40;;;5.20;49.10;;;;;;5103950;28;20225;-64
2022/04/04 07:54:54;;;;;;;8.27;6.05;;;5.30;47.70;;;;;;5102236;28;20213;-63
2022/04/04 07:57:23;;;;;;;7.32;6.25;;;5.40;47.80;;;;;;5102604;28;20217;-63
2022/04/04 07:59:51;;;;;;;9.23;7.22;;;5.70;49.40;;;;;;5103012;28;20340;-64
2022/04/04 08:02:18;;;;;;;7.15;6.15;;;6.20;47.10;;;;;;5102979;28;20710;-63
2022/04/04 08:04:45;;;;;;;8.27;6.50;;;6.60;46.60;;;;;;5103318;28;20301;-63
2022/04/04 08:07:13;;;;;;;11.98;6.45;;;7.10;45.60;;;;;;5104614;28;20286;-63
2022/04/04 08:09:40;;;;;;;8.05;6.40;;;7.50;44.90;;;;;;5103564;28;20227;-64
2022/04/04 08:12:09;;;;;;;10.10;6.30;;;7.60;44.80;;;;;;5106195;28;20196;-63
2022/04/04 08:14:38;;;;;;;15.45;9.45;;;7.90;43.00;;;;;;5107009;28;20227;-63
2022/04/04 08:17:08;;;;;;;15.75;9.85;;;7.70;41.50;;;;;;5105982;28;20232;-64
2022/04/04 08:19:35;;;;;;;12.77;8.98;;;7.30;42.40;;;;;;5103913;28;20239;-64
2022/04/04 08:22:02;;;;;;;8.95;7.10;;;7.20;43.00;;;;;;5107341;28;20205;-64
2022/04/04 08:24:30;;;;;;;12.10;8.80;;;7.40;43.20;;;;;;5093341;28;20644;-64
2022/04/04 08:26:57;;;;;;;11.70;8.27;;;7.60;43.60;;;;;;5092860;28;20193;-63
2022/04/04 08:29:24;;;;;;;13.05;9.00;;;7.80;40.40;;;;;;5100471;28;20231;-64
2022/04/04 08:31:52;;;;;;;10.75;7.82;;;7.70;41.00;;;;;;5105383;28;20202;-64
2022/04/04 08:34:19;;;;;;;7.68;6.88;;;7.90;41.60;;;;;;5105916;28;20224;-64
2022/04/04 08:36:46;;;;;;;10.65;7.72;;;8.10;42.70;;;;;;5105782;28;20632;-64
2022/04/04 08:39:13;;;;;;;8.07;6.22;;;8.60;41.40;;;;;;5110778;28;20235;-64
2022/04/04 08:41:41;;;;;;;8.60;6.68;;;9.10;42.90;;;;;;5110762;28;20281;-63
2022/04/04 08:44:08;;;;;;;9.75;7.10;;;10.20;41.90;;;;;;5106910;28;20195;-63
2022/04/04 08:46:35;;;;;;;9.65;6.50;;;10.90;38.00;;;;;;5109514;28;20267;-64
2022/04/04 08:49:06;;;;;;;12.35;9.93;;;11.50;37.40;;;;;;5106390;28;20257;-63
2022/04/04 08:51:33;;;;;;;7.70;6.90;;;12.10;37.90;;;;;;5110848;28;20203;-64
2022/04/04 08:54:01;;;;;;;16.35;13.05;;;13.00;36.40;;;;;;5106479;28;20284;-64
2022/04/04 08:56:28;;;;;;;9.15;6.95;;;13.90;32.00;;;;;;5109342;28;20306;-64
2022/04/04 08:58:57;;;;;;;8.88;7.10;;;14.90;34.60;;;;;;5098956;28;20239;-67
2022/04/04 09:01:27;;;;;;;9.80;8.80;;;17.30;33.40;;;;;;5092205;28;20217;-65
2022/04/04 09:04:12;;;;;;;32.70;29.33;;;19.40;31.10;;;;;;5091759;28;20466;-65
2022/04/04 09:06:49;;;;;;;27.43;24.67;;;21.20;30.00;;;;;;5095737;28;20434;-64
2022/04/04 09:09:20;;;;;;;9.23;8.33;;;23.60;24.90;;;;;;5096073;28;20450;-64
2022/04/04 09:12:05;;;;;;;9.37;8.17;;;26.20;27.10;;;;;;5095654;28;20435;-62
2022/04/04 09:14:36;;;;;;;6.90;6.20;;;28.90;22.60;;;;;;5095393;28;20767;-63
2022/04/04 09:17:03;;;;;;;6.93;6.33;;;29.60;18.30;;;;;;5094848;28;20980;-62
2022/04/04 09:19:31;;;;;;;7.53;6.77;;;31.10;17.40;;;;;;5095678;28;20440;-62
2022/04/04 09:22:05;;;;;;;6.63;6.03;;;30.50;14.70;;;;;;5096237;28;20575;-63
2022/04/04 09:24:49;;;;;;;7.47;6.63;;;30.20;14.70;;;;;;5097698;28;20438;-63
2022/04/04 09:27:24;;;;;;;6.67;6.07;;;31.20;15.70;;;;;;5095976;28;20473;-62
2022/04/04 09:29:53;;;;;;;6.73;6.10;;;32.60;14.00;;;;;;5091408;28;20442;-64
2022/04/04 09:32:20;;;;;;;7.93;6.83;;;31.70;11.40;;;;;;5097810;28;20495;-63
2022/04/04 09:34:56;;;;;;;8.10;6.27;;;31.50;11.00;;;;;;5100753;28;20435;-63
2022/04/04 09:37:26;;;;;;;6.43;5.83;;;31.60;12.80;;;;;;5107821;28;20435;-63
2022/04/04 09:40:03;;;;;;;6.87;6.20;;;33.30;12.20;;;;;;5107698;28;20472;-63
2022/04/04 09:42:31;;;;;;;7.10;6.40;;;34.50;12.10;;;;;;5109230;28;20915;-63
2022/04/04 09:45:00;;;;;;;7.23;6.53;;;35.60;10.30;;;;;;5106875;28;20526;-63
2022/04/04 09:47:49;;;;;;;6.77;6.17;;;36.60;10.30;;;;;;5101917;28;20488;-64
2022/04/04 09:50:36;;;;;;;7.00;6.40;;;37.10;9.00;;;;;;5093279;28;20493;-63
2022/04/04 09:53:06;;;;;;;6.63;6.03;;;36.90;8.90;;;;;;5098875;28;20770;-63
2022/04/04 09:55:34;;;;;;;7.30;6.60;;;37.50;8.70;;;;;;5099606;28;20446;-63
2022/04/04 09:58:04;;;;;;;7.07;6.40;;;35.90;8.50;;;;;;5100211;28;20500;-67
2022/04/04 10:00:31;;;;;;;7.07;6.47;;;36.00;9.60;;;;;;5100275;28;20436;-63
2022/04/04 10:03:01;;;;;;;6.93;6.33;;;37.20;9.10;;;;;;5097447;28;20522;-63
2022/04/04 10:05:29;;;;;;;7.10;6.43;;;38.40;9.20;;;;;;5096203;28;20439;-63
2022/04/04 10:07:58;;;;;;;7.63;6.93;;;38.60;7.90;;;;;;5101084;28;20493;-63
2022/04/04 10:10:30;;;;;;;6.63;6.00;;;38.40;7.10;;;;;;5098166;28;20435;-63
2022/04/04 10:12:58;;;;;;;6.47;5.87;;;37.70;6.60;;;;;;5092355;28;20530;-63
2022/04/04 10:15:27;;;;;;;12.37;11.20;;;36.30;7.90;;;;;;5096103;28;20474;-63
2022/04/04 10:17:56;;;;;;;25.97;23.33;;;36.70;7.80;;;;;;5101904;28;20573;-63
2022/04/04 10:20:23;;;;;;;9.60;8.80;;;37.20;8.40;;;;;;5101092;28;20445;-63
2022/04/04 10:22:52;;;;;;;7.67;6.97;;;37.90;7.70;;;;;;5098580;28;20439;-63
2022/04/04 10:25:24;;;;;;;6.77;6.17;;;38.90;7.90;;;;;;5098046;28;20446;-62
2022/04/04 10:27:53;;;;;;;7.60;7.00;;;38.80;6.80;;;;;;5098107;28;20565;-63
2022/04/04 10:30:32;;;;;;;8.10;7.40;;;39.20;7.20;;;;;;5101255;28;20450;-63
2022/04/04 10:32:59;;;;;;;8.33;7.63;;;39.70;6.30;;;;;;5100300;28;20442;-63
2022/04/04 10:35:28;;;;;;;7.50;6.83;;;37.70;6.40;;;;;;5099948;28;20477;-63
2022/04/04 10:37:59;;;;;;;26.30;23.90;;;36.10;5.80;;;;;;5096389;28;20529;-63
2022/04/04 10:40:28;;;;;;;9.50;8.67;;;33.20;6.80;;;;;;5098782;28;20522;-63
2022/04/04 10:43:11;;;;;;;10.90;10.00;;;30.80;8.00;;;;;;5105067;28;20488;-62
2022/04/04 10:45:52;;;;;;;11.83;10.00;;;29.30;9.90;;;;;;5101386;28;20447;-62
2022/04/04 10:48:21;;;;;;;9.60;8.80;;;27.90;9.70;;;;;;5096834;28;20916;-63
2022/04/04 10:50:48;;;;;;;8.77;7.97;;;26.50;10.40;;;;;;5106146;28;20445;-62
2022/04/04 10:53:15;;;;;;;7.27;6.57;;;26.00;11.50;;;;;;5103424;28;20509;-62
2022/04/04 10:55:52;;;;;;;8.17;7.30;;;24.90;11.90;;;;;;5101482;28;20431;-61
2022/04/04 10:58:27;;;;;;;10.20;8.20;;;24.50;12.10;;;;;;5107413;28;20447;-62
2022/04/04 11:00:57;;;;;;;8.70;7.90;;;23.80;13.40;;;;;;5093934;28;20941;-62
2022/04/04 11:03:31;;;;;;;7.33;6.60;;;22.80;12.70;;;;;;5097696;28;20456;-64
2022/04/04 11:09:02;;;;;;;7.87;7.07;;;21.50;16.10;;;;;;5103893;28;20931;-61
2022/04/04 11:11:47;;;;;;;8.20;7.07;;;22.00;14.50;;;;;;5099168;28;20521;-61
2022/04/04 11:14:17;;;;;;;20.07;17.97;;;21.40;15.60;;;;;;5103630;28;20486;-61
2022/04/04 11:17:18;;;;;;;8.93;8.03;;;21.60;15.20;;;;;;5098311;28;20466;-64
2022/04/04 11:19:45;;;;;;;8.67;7.87;;;21.00;16.50;;;;;;5098693;28;20486;-64
2022/04/04 11:22:15;;;;;;;8.10;7.30;;;20.70;15.60;;;;;;5097734;28;20445;-62
2022/04/04 11:24:42;;;;;;;9.00;7.53;;;21.40;16.30;;;;;;5096004;28;20982;-62
2022/04/04 11:27:11;;;;;;;7.63;6.83;;;22.70;20.00;;;;;;5094053;28;20483;-62
2022/04/04 11:29:41;;;;;;;8.40;7.60;;;26.90;17.40;;;;;;5094597;28;20866;-62
2022/04/04 11:32:09;;;;;;;8.10;7.40;;;30.60;14.10;;;;;;5095525;28;20471;-63
2022/04/04 11:34:42;;;;;;;7.90;7.17;;;33.10;12.60;;;;;;5094156;28;20448;-62
2022/04/04 11:37:17;;;;;;;8.50;7.70;;;34.90;11.30;;;;;;5092641;28;20450;-63
2022/04/04 11:39:46;;;;;;;7.47;6.83;;;35.60;10.00;;;;;;5091010;28;20446;-62
2022/04/04 11:42:13;;;;;;;8.70;8.00;;;35.40;8.00;;;;;;5090461;28;21008;-62
2022/04/04 11:44:48;;;;;;;10.97;9.97;;;32.40;7.80;;;;;;5087633;28;20528;-62
2022/04/04 11:47:17;;;;;;;8.40;7.57;;;29.30;9.40;;;;;;5090319;28;20505;-62
2022/04/04 11:49:46;;;;;;;7.40;6.70;;;26.90;10.70;;;;;;5091154;28;20495;-61
2022/04/04 11:52:18;;;;;;;7.40;6.63;;;25.40;11.30;;;;;;5092482;28;20435;-61
2022/04/04 11:54:49;;;;;;;7.87;7.07;;;23.50;12.20;;;;;;5091018;28;20442;-62
2022/04/04 11:57:17;;;;;;;7.63;6.80;;;24.20;16.70;;;;;;5093212;28;20450;-62
2022/04/04 11:59:49;;;;;;;6.77;6.17;;;27.00;14.20;;;;;;5090634;28;20451;-63
2022/04/04 12:02:16;;;;;;;7.90;7.10;;;29.10;13.40;;;;;;5090752;28;21020;-62
2022/04/04 12:04:45;;;;;;;8.60;7.70;;;28.40;11.00;;;;;;5091825;28;20604;-62
2022/04/04 12:07:12;;;;;;;7.40;6.70;;;27.40;11.30;;;;;;5093461;28;20574;-62
2022/04/04 12:09:40;;;;;;;9.03;8.23;;;26.70;14.10;;;;;;5091269;28;20433;-63
2022/04/04 12:12:09;;;;;;;8.40;7.60;;;27.20;14.20;;;;;;5091206;28;20801;-62
2022/04/04 12:14:38;;;;;;;7.50;6.50;;;27.10;12.90;;;;;;5093470;28;20459;-61
2022/04/04 12:17:07;;;;;;;7.60;6.90;;;26.40;13.00;;;;;;5090427;28;20491;-64
2022/04/04 12:19:45;;;;;;;8.10;6.93;;;25.50;13.70;;;;;;5087068;28;20428;-62
2022/04/04 12:25:00;;;;;;;8.93;8.13;;;23.70;15.00;;;;;;5088998;28;20422;-62
2022/04/04 12:27:28;;;;;;;7.93;7.13;;;23.30;17.20;;;;;;5090121;28;20980;-62
2022/04/04 12:30:00;;;;;;;9.13;8.33;;;23.60;16.70;;;;;;5090527;28;20439;-62
2022/04/04 12:32:34;;;;;;;8.80;8.00;;;23.70;15.90;;;;;;5091108;28;20439;-62
2022/04/04 12:35:03;;;;;;;9.73;8.63;;;23.10;14.80;;;;;;5092700;28;20427;-62
2022/04/04 12:37:42;;;;;;;8.00;7.30;;;22.30;15.80;;;;;;5090729;28;20822;-61
2022/04/04 12:40:20;;;;;;;7.57;6.83;;;22.20;16.30;;;;;;5094434;28;20442;-61
2022/04/04 12:42:51;;;;;;;95.93;68.57;;;21.80;15.80;;;;;;5095180;28;20929;-61
2022/04/04 12:45:20;;;;;;;9.90;8.37;;;21.10;16.10;;;;;;5094664;28;21024;-62
2022/04/04 12:48:00;;;;;;;9.33;8.20;;;20.60;16.80;;;;;;5090636;28;20478;-62
2022/04/04 12:50:38;;;;;;;7.80;7.00;;;20.30;18.00;;;;;;5094631;28;20435;-63
2022/04/04 12:53:07;;;;;;;9.90;8.00;;;20.30;19.30;;;;;;5104443;28;20469;-62
2022/04/04 12:55:35;;;;;;;12.20;8.23;;;20.20;18.80;;;;;;5115018;28;20465;-61
2022/04/04 12:58:20;;;;;;;8.20;7.40;;;20.20;18.70;;;;;;5107970;28;20476;-61
2022/04/04 13:00:50;;;;;;;9.67;8.77;;;20.10;19.30;;;;;;5095994;28;20998;-61
2022/04/04 13:03:24;;;;;;;9.40;8.50;;;19.90;19.00;;;;;;5096500;28;20493;-61
2022/04/04 13:05:53;;;;;;;9.40;8.50;;;19.50;18.60;;;;;;5096391;28;20430;-62
2022/04/04 13:08:22;;;;;;;9.27;8.37;;;19.10;19.00;;;;;;5096495;28;20475;-62